createdAt,value
2022-12-26T00:05:44.498Z,12.23
2022-12-26T00:20:35.337Z,12.35
2022-12-26T00:35:26.855Z,12.49
2022-12-26T00:50:18.389Z,12.64
2022-12-26T01:05:09.943Z,12.73
2022-12-26T01:20:01.097Z,13.00
2022-12-26T01:34:52.365Z,13.11
2022-12-26T01:49:43.695Z,13.09
2022-12-26T02:04:52.998Z,13.19
2022-12-26T02:20:04.925Z,13.20
2022-12-26T02:35:06.375Z,13.16
2022-12-26T02:50:41.916Z,13.35
2022-12-26T03:06:08.599Z,13.24
2022-12-26T03:21:08.223Z,13.32
2022-12-26T03:35:58.021Z,13.31
2022-12-26T03:51:06.875Z,13.21
2022-12-26T04:06:22.093Z,13.32
2022-12-26T04:21:46.018Z,13.29
2022-12-26T04:37:01.536Z,13.45
2022-12-26T04:51:55.596Z,13.54
2022-12-26T05:07:03.823Z,13.43
2022-12-26T05:22:17.705Z,13.02
2022-12-26T05:37:12.801Z,12.96
2022-12-26T05:52:03.863Z,12.84
2022-12-26T06:06:55.391Z,12.81
2022-12-26T06:21:47.048Z,13.00
2022-12-26T06:36:38.974Z,13.03
2022-12-26T06:51:29.070Z,12.52
2022-12-26T07:06:24.149Z,12.26
2022-12-26T07:21:19.127Z,12.20
2022-12-26T07:36:10.329Z,12.14
2022-12-26T07:51:02.148Z,12.01
2022-12-26T08:05:52.720Z,11.86
2022-12-26T08:20:44.032Z,11.92
2022-12-26T08:35:34.576Z,11.99
2022-12-26T08:50:25.673Z,11.88
2022-12-26T09:05:15.534Z,11.80
2022-12-26T09:20:06.739Z,11.71
2022-12-26T09:35:00.139Z,11.69
2022-12-26T09:49:51.050Z,11.66
2022-12-26T10:04:43.043Z,11.70
2022-12-26T10:19:39.626Z,11.71
2022-12-26T10:34:50.301Z,11.81
2022-12-26T10:49:46.590Z,11.88
2022-12-26T11:05:11.149Z,11.91
2022-12-26T11:19:31.290Z,11.99
2022-12-26T11:34:25.686Z,11.97
2022-12-26T11:49:21.581Z,12.02
2022-12-26T12:04:16.017Z,12.05
2022-12-26T12:19:13.458Z,12.11
2022-12-26T12:34:14.614Z,12.16
2022-12-26T12:49:35.462Z,11.90
2022-12-26T13:19:40.529Z,12.99
2022-12-26T13:34:34.592Z,12.55
2022-12-26T13:49:40.186Z,12.23
2022-12-26T14:05:12.667Z,12.06
2022-12-26T14:20:21.213Z,11.87
2022-12-26T14:35:28.526Z,11.65
2022-12-26T14:50:32.208Z,11.39
2022-12-26T15:05:33.148Z,11.34
2022-12-26T15:20:49.752Z,11.24
2022-12-26T15:35:47.972Z,11.21
2022-12-26T15:50:58.289Z,11.28
2022-12-26T16:05:54.337Z,11.29
2022-12-26T16:21:04.107Z,11.30
2022-12-26T16:36:01.488Z,11.27
2022-12-26T16:50:54.798Z,11.21
2022-12-26T17:05:49.785Z,11.15
2022-12-26T17:20:41.569Z,11.11
2022-12-26T17:35:47.125Z,11.16
2022-12-26T17:50:24.787Z,11.10
2022-12-26T18:05:17.764Z,11.00
2022-12-26T18:20:19.490Z,11.02
2022-12-26T18:35:14.687Z,10.62
2022-12-26T18:50:04.878Z,10.31
2022-12-26T19:04:56.666Z,10.14
2022-12-26T19:19:47.647Z,10.06
2022-12-26T19:34:37.404Z,10.01
2022-12-26T19:49:33.577Z,9.93
2022-12-26T20:04:18.952Z,9.83
2022-12-26T20:19:09.554Z,9.67
2022-12-26T20:34:00.492Z,9.56
2022-12-26T20:48:51.557Z,9.53
2022-12-26T21:03:43.340Z,9.54
2022-12-26T21:18:35.000Z,9.49
2022-12-26T21:33:25.433Z,9.44
2022-12-26T22:03:25.360Z,9.39
2022-12-26T22:18:21.276Z,9.33
2022-12-26T22:33:10.988Z,9.13
2022-12-26T22:48:00.295Z,8.94
2022-12-26T23:02:51.009Z,8.70
2022-12-26T23:18:00.430Z,8.51
2022-12-26T23:32:54.786Z,8.21
2022-12-26T23:47:44.308Z,8.00
